Time;durP1;ratioP1;P1;durP2;ratioP2;P2;SDS_P1;SDS_P2;PMS_P1;PMS_P2;Temp;Humidity;BMP_temperature;BMP_pressure;BME280_temperature;BME280_humidity;BME280_pressure;Samples;Min_cycle;Max_cycle;Signal;HPM_P1;HPM_P2
2021/04/24 00:01:12;;;;;;;8.43;4.30;;;;;;;4.95;57.90;100259.78;1738900;81;21073;-76
2021/04/24 00:03:40;;;;;;;6.65;3.67;;;;;;;4.91;58.09;100266.95;1722188;82;21505;-77
2021/04/24 00:06:07;;;;;;;8.45;3.80;;;;;;;4.86;58.22;100271.63;1733311;82;21156;-77
2021/04/24 00:08:35;;;;;;;7.67;3.58;;;;;;;4.81;58.40;100277.09;1706213;82;22141;-76
2021/04/24 00:11:02;;;;;;;8.98;3.92;;;;;;;4.76;58.54;100265.23;1734506;82;21504;-77
2021/04/24 00:13:30;;;;;;;7.67;3.85;;;;;;;4.70;58.67;100270.80;1738012;82;21086;-77
2021/04/24 00:15:57;;;;;;;7.53;3.95;;;;;;;4.65;58.79;100265.00;1738201;82;21129;-75
2021/04/24 00:18:25;;;;;;;6.42;3.70;;;;;;;4.58;58.89;100272.34;1746810;81;21122;-75
2021/04/24 00:20:52;;;;;;;10.30;4.20;;;;;;;4.52;59.17;100270.05;1735770;82;22585;-74
2021/04/24 00:23:20;;;;;;;6.55;3.67;;;;;;;4.45;59.32;100270.05;1734112;82;21513;-74
2021/04/24 00:25:47;;;;;;;8.28;3.80;;;;;;;4.40;59.51;100277.28;1747988;82;21133;-74
2021/04/24 00:28:15;;;;;;;6.80;3.70;;;;;;;4.35;59.67;100279.33;1737425;82;21120;-75
2021/04/24 00:30:43;;;;;;;7.60;3.95;;;;;;;4.33;59.81;100287.23;1742927;81;21078;-76
2021/04/24 00:33:10;;;;;;;6.10;3.40;;;;;;;4.29;59.95;100281.80;1739793;81;22087;-74
2021/04/24 00:35:38;;;;;;;7.62;3.25;;;;;;;4.25;60.20;100280.30;1741016;82;21103;-74
2021/04/24 00:38:05;;;;;;;6.95;3.60;;;;;;;4.18;60.31;100281.55;1744852;81;21573;-75
2021/04/24 00:40:33;;;;;;;8.53;3.90;;;;;;;4.14;60.59;100285.23;1736656;82;21385;-75
2021/04/24 00:43:00;;;;;;;8.40;4.15;;;;;;;4.08;60.77;100282.52;1747947;81;21082;-75
2021/04/24 00:45:27;;;;;;;6.12;3.80;;;;;;;4.03;61.05;100284.05;1731665;81;22060;-75
2021/04/24 00:47:56;;;;;;;7.10;3.85;;;;;;;4.00;61.22;100286.84;1722226;82;21129;-75
2021/04/24 00:50:31;;;;;;;7.37;3.77;;;;;;;3.99;61.38;100284.31;1731444;82;21486;-76
2021/04/24 00:52:59;;;;;;;7.85;3.87;;;;;;;3.95;61.52;100293.23;1757794;81;21366;-75
2021/04/24 00:55:27;;;;;;;9.63;3.98;;;;;;;3.93;61.62;100282.02;1793362;79;21438;-75
2021/04/24 00:57:55;;;;;;;7.70;3.30;;;;;;;3.91;61.67;100287.33;1795507;79;22625;-75
2021/04/24 01:00:24;;;;;;;8.58;3.70;;;;;;;3.92;61.76;100294.70;1805019;79;21143;-76
2021/04/24 01:02:51;;;;;;;9.05;3.65;;;;;;;3.87;61.79;100291.05;1792698;79;21038;-76
2021/04/24 01:05:23;;;;;;;12.70;3.67;;;;;;;3.82;61.88;100289.13;1787755;79;21207;-76
2021/04/24 01:07:51;;;;;;;8.15;3.50;;;;;;;3.80;61.95;100284.91;1785599;79;21042;-77
2021/04/24 01:10:20;;;;;;;9.53;3.58;;;;;;;3.76;62.01;100292.05;1806584;79;22500;-78
2021/04/24 01:12:48;;;;;;;5.53;3.47;;;;;;;3.71;62.01;100288.84;1787321;79;21141;-77
2021/04/24 01:15:18;;;;;;;6.65;3.33;;;;;;;3.67;62.12;100281.65;1789637;79;21094;-77
2021/04/24 01:17:45;;;;;;;7.22;3.47;;;;;;;3.67;62.15;100286.03;1801526;79;21556;-77
2021/04/24 01:20:14;;;;;;;7.75;3.22;;;;;;;3.64;62.20;100291.39;1792918;79;21050;-75
2021/04/24 01:22:43;;;;;;;4.75;3.37;;;;;;;3.60;62.26;100289.41;1794006;79;22060;-76
2021/04/24 01:25:17;;;;;;;5.60;3.27;;;;;;;3.57;62.26;100290.02;1796885;79;21050;-76
2021/04/24 01:27:49;;;;;;;5.70;3.30;;;;;;;3.55;62.27;100294.48;1804296;79;21121;-76
2021/04/24 01:30:19;;;;;;;5.45;3.42;;;;;;;3.53;62.31;100291.11;1808628;79;21132;-76
2021/04/24 01:32:47;;;;;;;6.62;3.65;;;;;;;3.51;62.34;100298.18;1742806;82;21128;-76
2021/04/24 01:35:17;;;;;;;8.40;4.20;;;;;;;3.50;62.31;100297.80;1793241;79;22112;-76
2021/04/24 01:37:45;;;;;;;6.40;3.50;;;;;;;3.48;62.34;100299.19;1810641;78;21479;-76
2021/04/24 01:40:15;;;;;;;7.40;3.40;;;;;;;3.45;62.32;100296.25;1756625;79;21046;-73
2021/04/24 01:42:43;;;;;;;6.30;3.10;;;;;;;3.43;62.25;100302.48;1809821;79;21067;-73
2021/04/24 01:45:12;;;;;;;5.90;3.50;;;;;;;3.40;62.23;100302.19;1789563;79;21045;-73
2021/04/24 01:47:41;;;;;;;6.10;3.30;;;;;;;3.38;62.21;100301.89;1805108;78;22053;-73
2021/04/24 01:50:13;;;;;;;7.90;3.20;;;;;;;3.38;62.24;100294.06;1794451;79;21279;-73
2021/04/24 01:52:41;;;;;;;6.10;3.27;;;;;;;3.38;62.20;100296.20;1794724;79;21173;-73
2021/04/24 01:55:14;;;;;;;6.83;3.50;;;;;;;3.37;62.19;100299.71;1808792;78;21061;-74
2021/04/24 01:57:44;;;;;;;5.05;3.00;;;;;;;3.36;62.13;100301.94;1808293;79;21050;-74
2021/04/24 02:00:23;;;;;;;7.87;3.33;;;;;;;3.32;62.14;100303.03;1809199;79;22047;-74
2021/04/24 02:02:53;;;;;;;6.30;3.50;;;;;;;3.27;62.20;100302.41;1813460;79;21069;-74
2021/04/24 02:05:21;;;;;;;5.00;2.67;;;;;;;3.23;62.25;100308.72;1800034;78;21176;-74
2021/04/24 02:07:58;;;;;;;6.87;2.80;;;;;;;3.20;62.25;100304.97;1803181;79;21640;-75
2021/04/24 02:10:27;;;;;;;5.58;3.00;;;;;;;3.16;62.33;100312.55;1783463;79;21109;-74
2021/04/24 02:12:58;;;;;;;8.18;3.60;;;;;;;3.13;62.35;100316.62;1783225;79;22123;-75
2021/04/24 02:15:26;;;;;;;5.53;3.12;;;;;;;3.10;62.38;100312.87;1754180;79;21151;-74
2021/04/24 02:17:54;;;;;;;4.72;2.83;;;;;;;3.12;62.42;100317.55;1789092;79;21457;-74
2021/04/24 02:20:22;;;;;;;6.25;3.10;;;;;;;3.11;62.37;100321.92;1781706;79;21197;-74
2021/04/24 02:22:49;;;;;;;4.97;2.87;;;;;;;3.13;62.45;100316.16;1783464;79;21502;-74
2021/04/24 02:25:18;;;;;;;8.03;3.60;;;;;;;3.09;62.40;100319.86;1788641;79;22020;-75
2021/04/24 02:27:46;;;;;;;5.33;3.17;;;;;;;3.08;62.43;100324.66;1798531;79;21113;-74
2021/04/24 02:30:17;;;;;;;5.90;3.45;;;;;;;3.10;62.47;100325.45;1814324;79;21172;-74
2021/04/24 02:32:44;;;;;;;6.30;3.47;;;;;;;3.10;62.49;100323.30;1812093;79;21186;-74
2021/04/24 02:35:17;;;;;;;6.35;3.62;;;;;;;3.10;62.49;100322.84;1806675;79;21053;-74
2021/04/24 02:37:44;;;;;;;5.83;3.77;;;;;;;3.08;62.43;100320.75;1791095;79;22577;-74
2021/04/24 02:40:18;;;;;;;5.42;3.50;;;;;;;3.05;62.46;100323.98;1800023;79;21511;-74
2021/04/24 02:42:46;;;;;;;7.25;3.77;;;;;;;3.02;62.53;100327.59;1803576;79;21560;-74
2021/04/24 02:45:14;;;;;;;5.42;3.50;;;;;;;3.00;62.60;100322.07;1814532;78;21053;-75
2021/04/24 02:47:42;;;;;;;6.47;3.67;;;;;;;3.00;62.61;100333.35;1808421;79;21042;-74
2021/04/24 02:50:14;;;;;;;8.63;3.98;;;;;;;2.98;62.59;100327.80;1790308;79;22477;-75
2021/04/24 02:52:41;;;;;;;8.58;3.62;;;;;;;2.96;62.63;100333.56;1794249;79;21094;-74
2021/04/24 02:55:11;;;;;;;5.58;3.62;;;;;;;2.95;62.66;100344.91;1791639;79;21066;-75
2021/04/24 02:57:39;;;;;;;6.83;3.55;;;;;;;2.94;62.68;100348.45;1805278;79;21066;-74
2021/04/24 03:00:09;;;;;;;5.90;3.27;;;;;;;2.92;62.70;100348.98;1790206;79;21447;-74
2021/04/24 03:02:37;;;;;;;7.10;3.65;;;;;;;2.90;62.81;100358.66;1799571;79;21901;-73
2021/04/24 03:05:10;;;;;;;9.68;3.92;;;;;;;2.86;62.93;100358.78;1804520;79;21022;-76
2021/04/24 03:07:39;;;;;;;5.92;3.75;;;;;;;2.84;63.00;100360.62;1788639;79;21122;-74
2021/04/24 03:10:08;;;;;;;7.08;3.90;;;;;;;2.85;63.03;100362.31;1812014;79;21582;-75
2021/04/24 03:12:36;;;;;;;4.90;3.08;;;;;;;2.84;63.08;100367.15;1797195;79;21062;-74
2021/04/24 03:15:06;;;;;;;6.03;3.35;;;;;;;2.83;63.24;100370.67;1759450;79;22020;-74
2021/04/24 03:17:34;;;;;;;6.47;3.45;;;;;;;2.81;63.21;100369.06;1795054;79;21156;-74
2021/04/24 03:20:04;;;;;;;5.37;3.17;;;;;;;2.81;63.28;100365.16;1813470;78;21038;-74
2021/04/24 03:22:32;;;;;;;7.75;3.72;;;;;;;2.78;63.31;100360.91;1801079;79;21573;-75
2021/04/24 03:24:59;;;;;;;6.25;3.30;;;;;;;2.77;63.40;100356.61;1795190;79;21122;-74
2021/04/24 03:27:26;;;;;;;4.95;3.12;;;;;;;2.79;63.46;100369.58;1739026;82;23197;-74
2021/04/24 03:29:54;;;;;;;5.90;3.67;;;;;;;2.79;63.49;100374.80;1775203;80;21141;-74
2021/04/24 03:32:21;;;;;;;8.05;3.80;;;;;;;2.79;63.52;100378.24;1799464;79;21469;-74
2021/04/24 03:34:49;;;;;;;5.72;3.25;;;;;;;2.80;63.56;100383.88;1796721;79;21197;-74
2021/04/24 03:37:16;;;;;;;5.35;3.20;;;;;;;2.80;63.66;100387.78;1793992;79;21106;-75
2021/04/24 03:39:44;;;;;;;5.00;3.10;;;;;;;2.82;63.72;100387.25;1786366;79;23035;-74
2021/04/24 03:42:13;;;;;;;5.30;3.22;;;;;;;2.83;63.79;100392.01;1793602;79;21058;-74
2021/04/24 03:44:41;;;;;;;6.35;3.72;;;;;;;2.86;63.81;100391.39;1787958;79;21118;-76
2021/04/24 03:47:10;;;;;;;6.40;3.42;;;;;;;2.89;63.84;100391.70;1780389;79;21355;-74
2021/04/24 03:49:38;;;;;;;6.70;3.00;;;;;;;2.92;63.77;100388.96;1809683;79;21671;-74
2021/04/24 03:52:06;;;;;;;5.95;3.40;;;;;;;2.97;63.75;100391.34;1798064;79;22500;-75
2021/04/24 03:54:33;;;;;;;5.60;3.20;;;;;;;2.99;63.72;100389.50;1796742;79;21161;-74
2021/04/24 03:57:01;;;;;;;6.15;3.60;;;;;;;3.01;63.72;100390.30;1799771;78;21624;-74
2021/04/24 03:59:29;;;;;;;8.60;3.62;;;;;;;3.02;63.69;100387.61;1819962;78;21062;-76
2021/04/24 04:01:56;;;;;;;6.72;3.02;;;;;;;3.05;63.72;100400.49;1796072;78;21113;-74
2021/04/24 04:04:24;;;;;;;4.78;3.27;;;;;;;3.09;63.65;100399.91;1801856;78;22514;-74
2021/04/24 04:06:51;;;;;;;6.35;3.17;;;;;;;3.13;63.64;100400.13;1810039;78;21568;-74
2021/04/24 04:09:18;;;;;;;3.80;2.67;;;;;;;3.16;63.58;100410.41;1795052;78;21497;-73
2021/04/24 04:11:47;;;;;;;4.55;2.87;;;;;;;3.19;63.63;100412.90;1792221;78;21121;-73
2021/04/24 04:14:14;;;;;;;6.55;3.02;;;;;;;3.23;63.56;100414.89;1820213;78;21145;-72
2021/04/24 04:16:41;;;;;;;4.28;2.95;;;;;;;3.28;63.52;100411.15;1768553;80;22510;-76
2021/04/24 04:19:09;;;;;;;6.87;3.08;;;;;;;3.32;63.46;100413.14;1751016;81;21268;-72
2021/04/24 04:21:37;;;;;;;4.67;2.80;;;;;;;3.38;63.50;100401.95;1740447;80;21129;-74
2021/04/24 04:24:06;;;;;;;5.17;3.17;;;;;;;3.42;63.39;100410.00;1718191;82;21145;-73
2021/04/24 04:26:33;;;;;;;5.17;2.98;;;;;;;3.49;63.20;100415.77;1756425;81;21354;-72
2021/04/24 04:29:00;;;;;;;5.67;3.05;;;;;;;3.52;63.22;100411.69;1735174;82;22583;-73
2021/04/24 04:31:28;;;;;;;6.60;2.72;;;;;;;3.59;63.05;100417.47;1743951;81;21153;-72
2021/04/24 04:33:58;;;;;;;4.92;2.90;;;;;;;3.64;63.03;100420.67;1737164;81;21091;-72
2021/04/24 04:36:26;;;;;;;5.40;3.10;;;;;;;3.71;63.01;100415.08;1761140;81;21568;-72
2021/04/24 04:38:55;;;;;;;4.37;2.45;;;;;;;3.80;62.85;100420.30;1772226;80;21042;-71
2021/04/24 04:41:24;;;;;;;7.42;3.50;;;;;;;3.87;62.49;100420.84;1746677;81;22895;-72
2021/04/24 04:43:52;;;;;;;8.28;2.98;;;;;;;3.95;62.46;100420.80;1720356;81;21086;-73
2021/04/24 04:46:19;;;;;;;5.47;2.75;;;;;;;4.05;62.43;100421.64;1749895;81;21145;-73
2021/04/24 04:48:47;;;;;;;5.92;2.98;;;;;;;4.16;62.38;100412.34;1754993;80;21138;-73
2021/04/24 04:51:15;;;;;;;4.25;2.60;;;;;;;4.28;62.17;100415.61;1761305;80;21548;-73
2021/04/24 04:53:43;;;;;;;5.40;2.45;;;;;;;4.38;61.77;100418.59;1753340;80;21845;-73
2021/04/24 04:56:12;;;;;;;3.42;2.25;;;;;;;4.41;61.17;100413.65;1769360;80;21105;-73
2021/04/24 04:58:40;;;;;;;3.50;2.20;;;;;;;4.43;60.85;100408.70;1760573;80;21057;-74
2021/04/24 05:01:09;;;;;;;5.72;2.20;;;;;;;4.44;60.67;100411.73;1764992;80;21054;-73
2021/04/24 05:03:38;;;;;;;5.35;2.55;;;;;;;4.46;60.53;100417.72;1765123;80;21121;-75
2021/04/24 05:06:20;;;;;;;5.53;2.42;;;;;;;4.50;60.37;100413.16;1770292;80;21070;-74
2021/04/24 05:08:48;;;;;;;5.75;2.40;;;;;;;4.56;60.79;100423.30;1772717;80;21157;-73
2021/04/24 05:11:17;;;;;;;3.50;2.27;;;;;;;4.65;60.50;100427.20;1765042;80;21161;-72
2021/04/24 05:13:45;;;;;;;4.45;2.37;;;;;;;4.68;60.21;100423.09;1739606;80;21152;-72
2021/04/24 05:16:14;;;;;;;3.92;2.52;;;;;;;4.68;59.89;100424.41;1756757;80;21197;-69
2021/04/24 05:18:41;;;;;;;4.00;2.67;;;;;;;4.67;59.96;100422.72;1733618;80;23200;-71
2021/04/24 05:21:08;;;;;;;4.17;2.33;;;;;;;4.65;60.04;100421.50;1746302;81;21171;-71
2021/04/24 05:23:36;;;;;;;3.83;2.20;;;;;;;4.69;60.22;100430.02;1730607;82;21177;-72
2021/04/24 05:26:03;;;;;;;3.70;2.25;;;;;;;4.71;60.24;100432.08;1712821;82;21069;-72
2021/04/24 05:28:31;;;;;;;4.03;2.22;;;;;;;4.72;60.20;100429.84;1726279;82;21069;-72
2021/04/24 05:30:59;;;;;;;3.60;1.82;;;;;;;4.73;60.31;100424.98;1729244;80;22003;-73
2021/04/24 05:33:27;;;;;;;4.92;2.50;;;;;;;4.76;60.31;100422.22;1745219;81;21573;-72
2021/04/24 05:35:54;;;;;;;4.55;2.00;;;;;;;4.75;60.15;100434.46;1749825;81;21605;-74
2021/04/24 05:38:22;;;;;;;3.83;2.20;;;;;;;4.76;60.16;100426.98;1761142;81;21497;-74
2021/04/24 05:40:49;;;;;;;4.08;2.33;;;;;;;4.76;60.34;100433.53;1749543;82;21146;-73
2021/04/24 05:43:16;;;;;;;2.95;2.47;;;;;;;4.78;60.46;100431.67;1749016;81;22938;-72
2021/04/24 05:45:44;;;;;;;5.03;2.58;;;;;;;4.78;60.58;100425.12;1759848;80;21181;-70
2021/04/24 05:48:12;;;;;;;3.27;2.47;;;;;;;4.80;60.90;100428.97;1752090;81;21089;-74
2021/04/24 05:50:41;;;;;;;6.62;2.40;;;;;;;4.83;61.12;100432.28;1738350;81;21361;-72
2021/04/24 05:53:09;;;;;;;3.80;2.40;;;;;;;4.91;61.27;100428.38;1734505;82;21139;-72
2021/04/24 05:55:37;;;;;;;4.00;2.30;;;;;;;4.98;61.29;100434.50;1737827;80;22187;-74
2021/04/24 05:58:04;;;;;;;4.75;2.60;;;;;;;5.03;61.30;100437.72;1802750;79;21647;-73
2021/04/24 06:00:32;;;;;;;3.92;2.40;;;;;;;5.11;61.54;100434.19;1796257;79;21062;-72
2021/04/24 06:02:59;;;;;;;5.15;2.87;;;;;;;5.20;61.20;100443.30;1792639;79;21449;-72
2021/04/24 06:05:27;;;;;;;3.90;2.40;;;;;;;5.20;61.09;100431.98;1798749;79;21061;-70
2021/04/24 06:07:56;;;;;;;4.53;2.50;;;;;;;5.26;61.20;100439.05;1784656;79;22986;-72
2021/04/24 06:10:24;;;;;;;3.37;2.15;;;;;;;5.36;60.89;100439.37;1792718;79;21161;-72
2021/04/24 06:12:51;;;;;;;4.78;2.27;;;;;;;5.48;60.93;100447.83;1799042;79;21082;-72
2021/04/24 06:15:23;;;;;;;4.03;2.60;;;;;;;5.64;60.45;100437.33;1790444;79;21138;-71
2021/04/24 06:17:50;;;;;;;4.28;2.62;;;;;;;5.79;60.09;100443.44;1792394;79;21087;-72
2021/04/24 06:20:20;;;;;;;4.55;2.47;;;;;;;5.95;59.89;100439.02;1797761;79;23600;-72
2021/04/24 06:22:47;;;;;;;3.22;2.30;;;;;;;6.10;59.76;100439.44;1787417;79;21216;-72
2021/04/24 06:25:17;;;;;;;5.55;2.30;;;;;;;6.19;57.98;100434.95;1794256;79;21121;-72
2021/04/24 06:27:45;;;;;;;4.22;2.62;;;;;;;6.13;57.43;100430.06;1790422;78;21102;-75
2021/04/24 06:30:16;;;;;;;5.75;2.98;;;;;;;5.98;57.34;100435.77;1790992;79;21189;-73
2021/04/24 06:32:44;;;;;;;5.62;3.08;;;;;;;5.89;58.01;100430.19;1764844;79;21840;-73
2021/04/24 06:35:13;;;;;;;4.12;2.65;;;;;;;5.88;58.35;100433.25;1787606;79;21190;-75
2021/04/24 06:37:41;;;;;;;4.22;3.00;;;;;;;5.89;58.14;100431.50;1783756;79;21169;-72
2021/04/24 06:40:11;;;;;;;6.00;2.90;;;;;;;5.90;58.06;100443.23;1786746;79;21828;-72
2021/04/24 06:42:39;;;;;;;5.05;3.05;;;;;;;5.94;57.98;100439.48;1762180;79;21137;-73
2021/04/24 06:45:08;;;;;;;5.12;3.05;;;;;;;6.04;58.43;100450.27;1799235;79;22457;-74
2021/04/24 06:47:36;;;;;;;3.90;2.75;;;;;;;6.19;58.18;100452.00;1794981;79;21184;-73
2021/04/24 06:50:06;;;;;;;4.45;2.12;;;;;;;6.28;57.76;100453.23;1788845;79;21185;-72
2021/04/24 06:52:34;;;;;;;5.12;2.90;;;;;;;6.24;57.23;100471.37;1793517;79;21160;-75
2021/04/24 06:55:03;;;;;;;4.03;2.37;;;;;;;5.84;59.09;100478.94;1792884;78;21196;-72
2021/04/24 06:57:30;;;;;;;3.77;2.00;;;;;;;5.39;61.20;100499.42;1786746;78;23435;-74
2021/04/24 06:59:58;;;;;;;3.83;1.98;;;;;;;4.97;63.13;100496.10;1786903;78;21181;-73
2021/04/24 07:02:26;;;;;;;3.87;2.20;;;;;;;4.60;64.79;100489.75;1753887;80;21173;-72
2021/04/24 07:04:53;;;;;;;4.45;2.17;;;;;;;4.38;66.33;100492.27;1760481;81;21785;-72
2021/04/24 07:07:21;;;;;;;4.33;1.82;;;;;;;4.21;66.74;100480.91;1773153;80;21551;-72
2021/04/24 07:09:48;;;;;;;4.53;2.00;;;;;;;4.16;67.02;100482.08;1736613;81;21866;-72
2021/04/24 07:12:15;;;;;;;4.25;1.90;;;;;;;4.16;67.55;100483.39;1742497;81;21216;-76
2021/04/24 07:14:43;;;;;;;4.45;2.42;;;;;;;4.16;67.94;100480.31;1736923;81;21181;-73
2021/04/24 07:17:11;;;;;;;3.45;2.25;;;;;;;4.26;68.39;100489.37;1741111;81;21168;-72
2021/04/24 07:19:38;;;;;;;5.15;2.25;;;;;;;4.37;68.15;100488.81;1749344;82;21180;-71
2021/04/24 07:22:06;;;;;;;3.33;2.40;;;;;;;4.52;68.19;100478.84;1742249;81;22994;-72
2021/04/24 07:24:33;;;;;;;5.08;2.67;;;;;;;4.67;66.96;100475.05;1743912;81;21157;-70
2021/04/24 07:27:01;;;;;;;4.47;3.00;;;;;;;4.83;66.35;100474.61;1752583;80;21149;-72
2021/04/24 07:29:29;;;;;;;6.03;2.50;;;;;;;5.03;65.95;100467.83;1732547;81;21608;-71
2021/04/24 07:31:57;;;;;;;5.20;2.50;;;;;;;5.21;64.26;100461.17;1740683;81;21189;-71
2021/04/24 07:34:24;;;;;;;8.95;5.17;;;;;;;5.37;64.34;100475.10;1751939;81;22353;-73
2021/04/24 07:36:52;;;;;;;3.42;2.50;;;;;;;5.55;64.10;100475.38;1760574;81;21915;-76
2021/04/24 07:39:20;;;;;;;5.92;2.70;;;;;;;5.80;62.72;100472.20;1773925;80;21628;-74
2021/04/24 07:41:47;;;;;;;4.65;2.42;;;;;;;6.04;61.99;100468.63;1745647;81;21237;-74
2021/04/24 07:44:15;;;;;;;3.40;2.05;;;;;;;6.14;61.14;100468.93;1741234;80;21197;-74
2021/04/24 07:46:42;;;;;;;3.65;2.05;;;;;;;6.13;59.42;100477.27;1749868;80;22067;-73
2021/04/24 07:49:10;;;;;;;4.05;2.30;;;;;;;6.02;59.22;100482.30;1777685;80;21181;-76
2021/04/24 07:51:38;;;;;;;7.75;2.20;;;;;;;5.92;58.64;100479.84;1769537;80;21189;-75
2021/04/24 07:54:06;;;;;;;5.03;2.00;;;;;;;5.82;58.05;100479.50;1759366;80;21165;-73
2021/04/24 07:56:33;;;;;;;2.90;1.92;;;;;;;5.79;57.44;100465.71;1726904;81;21152;-74
2021/04/24 07:59:01;;;;;;;6.95;4.12;;;;;;;5.81;57.08;100466.49;1707537;83;21907;-74
2021/04/24 08:01:28;;;;;;;7.33;2.12;;;;;;;5.89;56.83;100476.06;1721492;82;21180;-75
2021/04/24 08:03:55;;;;;;;2.40;1.75;;;;;;;6.06;56.98;100481.64;1716347;81;21147;-74
2021/04/24 08:06:23;;;;;;;10.40;6.65;;;;;;;6.28;55.97;100486.02;1723680;82;21175;-74
2021/04/24 08:08:50;;;;;;;4.05;2.10;;;;;;;6.47;56.26;100472.16;1724411;82;21226;-72
2021/04/24 08:11:18;;;;;;;5.33;3.05;;;;;;;6.71;55.67;100482.92;1729099;82;21906;-72
2021/04/24 08:13:45;;;;;;;5.95;2.92;;;;;;;6.88;54.53;100485.83;1725988;82;21191;-74
2021/04/24 08:16:14;;;;;;;5.58;3.20;;;;;;;6.98;53.45;100476.91;1721587;82;21184;-76
2021/04/24 08:18:41;;;;;;;2.02;1.52;;;;;;;6.99;51.94;100479.91;1738118;82;22175;-75
2021/04/24 08:21:08;;;;;;;2.95;1.67;;;;;;;6.99;52.93;100479.43;1711486;82;21178;-77
2021/04/24 08:23:36;;;;;;;3.67;1.50;;;;;;;7.04;51.83;100479.12;1727364;82;21740;-77
2021/04/24 08:26:04;;;;;;;1.85;1.27;;;;;;;7.07;51.49;100481.58;1700759;83;21034;-78
2021/04/24 08:28:32;;;;;;;2.60;1.75;;;;;;;7.11;51.38;100472.55;1697355;83;21129;-76
2021/04/24 08:30:59;;;;;;;3.42;1.60;;;;;;;7.16;50.60;100475.75;1702494;83;21212;-78
2021/04/24 08:33:26;;;;;;;2.30;1.40;;;;;;;7.18;50.02;100470.76;1714148;83;21164;-79
2021/04/24 08:35:54;;;;;;;3.25;1.80;;;;;;;7.08;49.77;100464.41;1703559;83;21670;-84
2021/04/24 08:38:22;;;;;;;2.75;1.52;;;;;;;7.00;50.68;100471.92;1710056;83;21142;-82
2021/04/24 08:40:50;;;;;;;3.20;1.70;;;;;;;6.96;50.83;100464.34;1732546;82;21138;-75
2021/04/24 08:43:18;;;;;;;5.40;2.77;;;;;;;6.89;51.97;100464.72;1713660;81;21202;-75
2021/04/24 08:45:46;;;;;;;5.00;3.62;;;;;;;6.87;52.34;100465.30;1704518;83;21468;-74
2021/04/24 08:48:13;;;;;;;4.35;2.83;;;;;;;6.84;52.38;100463.31;1713540;83;21845;-73
2021/04/24 08:50:40;;;;;;;2.33;1.55;;;;;;;6.76;51.71;100462.50;1719154;83;21183;-75
2021/04/24 08:53:08;;;;;;;3.90;1.90;;;;;;;6.62;51.37;100467.74;1711184;83;21181;-74
2021/04/24 08:55:38;;;;;;;4.22;1.70;;;;;;;6.49;51.00;100464.19;1707037;82;21180;-73
2021/04/24 08:58:06;;;;;;;1.98;1.30;;;;;;;6.38;51.09;100460.07;1746262;82;21201;-74
2021/04/24 09:00:37;;;;;;;1.52;1.12;;;;;;;6.37;51.13;100461.85;1687614;83;22966;-75
2021/04/24 09:03:07;;;;;;;2.90;1.30;;;;;;;6.56;51.66;100474.66;1730018;82;21231;-75
2021/04/24 09:05:35;;;;;;;2.20;1.27;;;;;;;6.76;49.19;100459.03;1733994;81;21195;-76
2021/04/24 09:08:06;;;;;;;2.62;1.27;;;;;;;6.96;49.01;100445.50;1730404;81;21202;-77
2021/04/24 09:10:43;;;;;;;1.22;1.00;;;;;;;7.14;49.04;100451.34;1734788;81;21200;-79
2021/04/24 09:13:19;;;;;;;2.12;1.20;;;;;;;7.37;48.57;100436.73;1733128;82;22161;-75
2021/04/24 09:15:47;;;;;;;2.22;1.20;;;;;;;7.68;48.78;100428.98;1708948;81;21552;-76
2021/04/24 09:18:16;;;;;;;2.02;1.00;;;;;;;8.03;47.08;100435.36;1718630;83;21200;-75
2021/04/24 09:20:51;;;;;;;4.70;1.20;;;;;;;8.28;46.58;100454.72;1709464;83;21479;-74
2021/04/24 09:23:21;;;;;;;4.58;1.20;;;;;;;8.36;46.50;100485.34;1706995;84;21228;-75
2021/04/24 09:26:08;;;;;;;3.08;1.10;;;;;;;7.76;48.67;100504.27;1699409;83;22830;-74
2021/04/24 09:28:41;;;;;;;4.55;1.32;;;;;;;6.83;51.60;100523.32;1739767;81;21513;-73
2021/04/24 09:31:15;;;;;;;1.80;1.20;;;;;;;6.09;55.65;100550.97;1736610;82;21192;-74
2021/04/24 09:33:46;;;;;;;1.70;1.20;;;;;;;5.41;58.56;100530.33;1701205;83;21455;-73
2021/04/24 09:36:17;;;;;;;1.67;1.10;;;;;;;4.90;60.55;100547.92;1703677;82;21220;-76
2021/04/24 09:38:47;;;;;;;2.45;1.55;;;;;;;4.50;62.61;100555.23;1733445;82;22585;-74
2021/04/24 09:41:27;;;;;;;1.60;1.10;;;;;;;4.26;63.15;100567.80;1733491;82;21070;-73
2021/04/24 09:44:06;;;;;;;2.10;1.20;;;;;;;4.12;63.92;100567.63;1729482;81;21200;-75
2021/04/24 09:46:54;;;;;;;2.72;1.55;;;;;;;4.02;64.23;100557.25;1734195;82;21484;-73
2021/04/24 09:49:29;;;;;;;3.15;1.60;;;;;;;3.91;64.95;100558.24;1733683;81;21188;-72
2021/04/24 09:52:04;;;;;;;3.35;1.60;;;;;;;3.91;65.40;100578.69;1734075;82;22070;-77
2021/04/24 09:54:38;;;;;;;2.22;1.30;;;;;;;3.96;65.42;100557.57;1733032;82;21199;-77
2021/04/24 09:57:11;;;;;;;2.22;1.30;;;;;;;4.07;65.91;100550.50;1735025;81;21129;-79
2021/04/24 10:00:03;;;;;;;1.65;1.10;;;;;;;4.17;65.51;100522.52;1744264;81;21246;-76
2021/04/24 10:02:38;;;;;;;3.33;1.30;;;;;;;4.37;65.00;100524.11;1739586;81;21454;-76
2021/04/24 10:05:14;;;;;;;3.17;1.40;;;;;;;4.79;65.79;100517.09;1740749;81;23439;-74
2021/04/24 10:07:44;;;;;;;2.33;1.20;;;;;;;5.22;64.73;100516.56;1751231;81;21169;-76
2021/04/24 10:10:23;;;;;;;2.45;1.40;;;;;;;5.63;64.32;100497.22;1744384;81;21204;-81
2021/04/24 10:12:55;;;;;;;3.77;1.10;;;;;;;6.07;61.60;100493.34;1752073;81;21184;-78
2021/04/24 10:15:41;;;;;;;3.42;2.17;;;;;;;6.48;57.35;100490.06;1756850;81;21216;-75
2021/04/24 10:18:12;;;;;;;6.78;3.65;;;;;;;6.73;56.00;100499.42;1727264;81;22740;-76
2021/04/24 10:20:44;;;;;;;1.92;1.10;;;;;;;7.10;56.38;100497.14;1754859;81;21204;-74
2021/04/24 10:23:13;;;;;;;1.90;1.40;;;;;;;7.42;54.15;100488.03;1738481;81;21167;-76
2021/04/24 10:25:41;;;;;;;3.05;1.30;;;;;;;7.64;51.09;100484.88;1737946;81;21180;-78
2021/04/24 10:28:09;;;;;;;2.62;1.37;;;;;;;7.81;49.70;100492.95;1711860;82;21185;-74
2021/04/24 10:30:38;;;;;;;2.20;1.37;;;;;;;7.73;47.74;100487.38;1705755;82;22101;-76
2021/04/24 10:33:05;;;;;;;2.80;1.27;;;;;;;7.64;49.31;100495.39;1685090;82;21224;-74
2021/04/24 10:35:33;;;;;;;4.12;1.17;;;;;;;7.87;49.45;100502.23;1721287;82;21197;-75
2021/04/24 10:38:01;;;;;;;1.67;1.00;;;;;;;8.19;46.91;100494.81;1716371;82;21596;-76
2021/04/24 10:40:29;;;;;;;3.95;1.27;;;;;;;8.46;43.62;100491.66;1703018;82;21483;-79
2021/04/24 10:42:58;;;;;;;3.37;1.00;;;;;;;8.60;41.95;100479.72;1711937;82;22346;-81
2021/04/24 10:45:32;;;;;;;2.47;0.93;;;;;;;8.59;39.52;100480.67;1719588;82;22319;-78
2021/04/24 10:47:59;;;;;;;6.12;2.30;;;;;;;8.35;40.39;100492.03;1700909;84;21185;-77
2021/04/24 10:50:47;;;;;;;4.20;2.15;;;;;;;8.17;40.14;100494.08;1699757;82;21245;-79
2021/04/24 10:53:26;;;;;;;2.80;1.30;;;;;;;8.05;40.04;100487.86;1697809;83;21177;-85
2021/04/24 10:55:55;;;;;;;3.08;1.70;;;;;;;8.17;39.26;100496.72;1699093;82;21924;-80
2021/04/24 10:58:25;;;;;;;4.08;1.90;;;;;;;8.29;37.83;100497.19;1705457;83;21232;-83
2021/04/24 11:01:01;;;;;;;3.65;1.40;;;;;;;8.42;38.47;100488.88;1721961;83;21213;-81
2021/04/24 11:03:48;;;;;;;1.45;0.95;;;;;;;8.74;39.39;100481.84;1713843;83;21244;-79
2021/04/24 11:06:21;;;;;;;5.05;2.20;;;;;;;9.17;37.58;100473.91;1739327;81;22335;-79
2021/04/24 11:08:51;;;;;;;7.22;3.30;;;;;;;9.32;36.78;100496.15;1708457;83;22073;-80
2021/04/24 11:11:22;;;;;;;6.55;3.65;;;;;;;9.32;38.13;100487.77;1722575;82;21186;-80
2021/04/24 11:13:56;;;;;;;5.80;2.65;;;;;;;9.29;37.00;100496.38;1728748;81;21188;-79
2021/04/24 11:16:31;;;;;;;4.83;1.62;;;;;;;9.27;38.28;100499.61;1732567;81;21185;-81
2021/04/24 11:18:53;;;;;;;6.72;3.70;;;;;;;9.52;36.64;100506.56;1727148;81;21132;-80
2021/04/24 11:21:29;;;;;;;4.10;2.20;;;;;;;9.71;34.42;100487.13;1739633;82;22140;-80
2021/04/24 11:23:59;;;;;;;2.98;1.10;;;;;;;9.79;34.54;100489.20;1742743;81;21140;-80
2021/04/24 11:26:57;;;;;;;4.83;2.90;;;;;;;9.92;32.73;100477.61;1733879;81;21679;-80
2021/04/24 11:29:36;;;;;;;1.80;0.72;;;;;;;10.13;30.93;100477.78;1720508;82;21077;-79
2021/04/24 11:32:10;;;;;;;6.62;2.30;;;;;;;10.26;29.98;100479.90;1724212;82;21073;-77
2021/04/24 11:34:42;;;;;;;5.37;3.12;;;;;;;10.40;29.37;100488.55;1719744;83;22606;-79
2021/04/24 11:37:23;;;;;;;2.17;1.25;;;;;;;10.58;29.78;100515.70;1696896;84;21210;-79
2021/04/24 11:40:28;;;;;;;3.58;1.90;;;;;;;10.54;28.92;100493.63;1694905;83;21189;-79
2021/04/24 11:43:06;;;;;;;5.35;1.50;;;;;;;10.22;30.03;100485.52;1673878;84;21189;-79
2021/04/24 11:45:53;;;;;;;4.92;2.27;;;;;;;9.75;30.66;100501.30;1669883;84;21185;-79